createdAt,value
2017-02-03T00:00:08.252Z,995.66
2017-02-03T00:01:18.602Z,995.64
2017-02-03T00:02:29.351Z,995.65
2017-02-03T00:03:40.098Z,995.63
2017-02-03T00:04:50.841Z,995.61
2017-02-03T00:06:00.429Z,995.62
2017-02-03T00:07:11.179Z,995.6
2017-02-03T00:08:21.925Z,995.62
2017-02-03T00:09:32.277Z,995.56
2017-02-03T00:10:41.846Z,995.58
2017-02-03T00:11:52.209Z,995.53
2017-02-03T00:13:01.764Z,995.53
2017-02-03T00:14:12.515Z,995.47
2017-02-03T00:15:22.476Z,995.52
2017-02-03T00:16:33.221Z,995.53
2017-02-03T00:17:43.573Z,995.58
2017-02-03T00:18:53.928Z,995.5
2017-02-03T00:20:04.669Z,995.49
2017-02-03T00:21:15.430Z,995.42
2017-02-03T00:22:25.785Z,995.46
2017-02-03T00:23:36.553Z,995.45
2017-02-03T00:24:47.297Z,995.39
2017-02-03T00:25:57.646Z,995.37
2017-02-03T00:27:08.399Z,995.39
2017-02-03T00:28:19.156Z,995.32
2017-02-03T00:29:29.901Z,995.33
2017-02-03T00:30:40.641Z,995.29
2017-02-03T00:31:51.390Z,995.32
2017-02-03T00:33:02.136Z,995.26
2017-02-03T00:34:12.489Z,995.24
2017-02-03T00:35:22.875Z,995.2
2017-02-03T00:36:33.227Z,995.16
2017-02-03T00:37:43.595Z,995.12
2017-02-03T00:38:53.994Z,995.06
2017-02-03T00:40:04.348Z,995
2017-02-03T00:41:15.086Z,994.95
2017-02-03T00:42:25.819Z,994.97
2017-02-03T00:43:35.393Z,994.95
2017-02-03T00:44:45.758Z,994.97
2017-02-03T00:45:56.121Z,994.99
2017-02-03T00:47:06.477Z,995.02
2017-02-03T00:48:17.236Z,995.03
2017-02-03T00:49:27.980Z,995.05
2017-02-03T00:50:37.943Z,995.03
2017-02-03T00:51:48.688Z,995.03
2017-02-03T00:52:59.437Z,995.11
2017-02-03T00:54:10.176Z,995.11
2017-02-03T00:55:20.140Z,995.04
2017-02-03T00:56:30.096Z,995.07
2017-02-03T00:57:40.763Z,995.02
2017-02-03T00:58:51.135Z,995.01
2017-02-03T01:00:00.700Z,995.05
2017-02-03T01:01:11.483Z,995.03
2017-02-03T01:02:21.828Z,995.05
2017-02-03T01:03:32.181Z,995.06
2017-02-03T01:04:42.147Z,995.03
2017-02-03T01:05:52.884Z,995.02
2017-02-03T01:07:02.846Z,995
2017-02-03T01:08:13.601Z,994.98
2017-02-03T01:09:23.574Z,995.01
2017-02-03T01:10:33.922Z,994.99
2017-02-03T01:11:44.259Z,995
2017-02-03T01:12:55.014Z,995.07
2017-02-03T01:14:05.762Z,995.02
2017-02-03T01:15:16.505Z,995.07
2017-02-03T01:16:27.262Z,995.08
2017-02-03T01:17:37.617Z,995.04
2017-02-03T01:18:48.382Z,995.06
2017-02-03T01:19:59.153Z,995.03
2017-02-03T01:21:09.502Z,995
2017-02-03T01:22:19.857Z,995
2017-02-03T01:23:29.810Z,995.06
2017-02-03T01:24:40.566Z,995.07
2017-02-03T01:25:50.924Z,995.08
2017-02-03T01:27:00.904Z,995.04
2017-02-03T01:28:11.665Z,995.04
2017-02-03T01:29:22.414Z,994.96
2017-02-03T01:30:33.149Z,994.97
2017-02-03T01:31:43.100Z,994.92
2017-02-03T01:32:53.450Z,995
2017-02-03T01:34:04.198Z,995.02
2017-02-03T01:35:14.165Z,995.02
2017-02-03T01:36:24.511Z,995.03
2017-02-03T01:37:35.267Z,995.01
2017-02-03T01:38:45.262Z,995.04
2017-02-03T01:39:56.046Z,995.04
2017-02-03T01:41:06.006Z,995.06
2017-02-03T01:42:15.957Z,995.05
2017-02-03T01:43:26.303Z,995.04
2017-02-03T01:44:36.253Z,995.04
2017-02-03T01:45:46.609Z,994.96
2017-02-03T01:46:57.357Z,994.95
2017-02-03T01:48:08.105Z,995.01
2017-02-03T01:49:18.454Z,995.01
2017-02-03T01:50:29.204Z,995.04
2017-02-03T01:51:39.941Z,994.99
2017-02-03T01:52:50.304Z,994.97
2017-02-03T01:54:01.060Z,994.95
2017-02-03T01:55:11.412Z,994.91
2017-02-03T01:56:22.153Z,994.92
2017-02-03T01:57:32.528Z,994.91
2017-02-03T01:58:42.889Z,994.87
2017-02-03T01:59:53.239Z,994.86
2017-02-03T02:01:03.582Z,994.85
2017-02-03T02:02:13.938Z,994.81
2017-02-03T02:03:24.686Z,994.79
2017-02-03T02:04:35.046Z,994.72
2017-02-03T02:05:45.792Z,994.67
2017-02-03T02:06:56.173Z,994.66
2017-02-03T02:08:06.925Z,994.72
2017-02-03T02:09:16.477Z,994.72
2017-02-03T02:10:26.822Z,994.75
2017-02-03T02:11:37.568Z,994.69
2017-02-03T02:12:48.308Z,994.67
2017-02-03T02:13:58.663Z,994.67
2017-02-03T02:15:09.001Z,994.67
2017-02-03T02:16:19.355Z,994.71
2017-02-03T02:17:29.699Z,994.72
2017-02-03T02:18:40.476Z,994.66
2017-02-03T02:19:50.832Z,994.6
2017-02-03T02:21:01.182Z,994.54
2017-02-03T02:22:11.544Z,994.54
2017-02-03T02:23:21.903Z,994.55
2017-02-03T02:24:31.872Z,994.53
2017-02-03T02:25:42.225Z,994.54
2017-02-03T02:26:52.976Z,994.52
2017-02-03T02:28:03.345Z,994.48
2017-02-03T02:29:13.708Z,994.47
2017-02-03T02:30:23.667Z,994.38
2017-02-03T02:31:34.427Z,994.37
2017-02-03T02:32:45.173Z,994.36
2017-02-03T02:33:55.918Z,994.33
2017-02-03T02:35:06.294Z,994.32
2017-02-03T02:36:17.040Z,994.35
2017-02-03T02:37:27.772Z,994.36
2017-02-03T02:38:38.506Z,994.41
2017-02-03T02:39:48.864Z,994.34
2017-02-03T02:40:59.213Z,994.29
2017-02-03T02:42:09.166Z,994.27
2017-02-03T02:43:18.728Z,994.24
2017-02-03T02:44:28.673Z,994.3
2017-02-03T02:45:39.437Z,994.34
2017-02-03T02:46:50.190Z,994.28
2017-02-03T02:47:59.742Z,994.31
2017-02-03T02:49:10.089Z,994.29
2017-02-03T02:50:20.851Z,994.28
2017-02-03T02:51:31.187Z,994.29
2017-02-03T02:52:41.152Z,994.27
2017-02-03T02:53:51.506Z,994.23
2017-02-03T02:55:01.875Z,994.21
2017-02-03T02:56:11.826Z,994.21
2017-02-03T02:57:22.562Z,994.19
2017-02-03T02:58:33.310Z,994.18
2017-02-03T02:59:44.068Z,994.2
2017-02-03T03:00:54.013Z,994.18
2017-02-03T03:33:08.860Z,993.81
2017-02-03T03:34:18.813Z,993.81
2017-02-03T03:35:29.553Z,993.75
2017-02-03T03:36:39.933Z,993.8
2017-02-03T03:37:50.887Z,993.82
2017-02-03T03:39:01.660Z,993.83
2017-02-03T03:40:12.019Z,993.79
2017-02-03T03:41:22.768Z,993.81
2017-02-03T03:42:33.127Z,993.78
2017-02-03T03:43:43.874Z,993.78
2017-02-03T03:44:54.215Z,993.78
2017-02-03T03:46:04.183Z,993.79
2017-02-03T03:47:14.583Z,993.79
2017-02-03T03:48:25.361Z,993.76
2017-02-03T03:49:36.098Z,993.72
2017-02-03T03:50:46.445Z,993.73
2017-02-03T03:51:56.008Z,993.69
2017-02-03T03:53:06.748Z,993.67
2017-02-03T03:54:17.092Z,993.62
2017-02-03T03:55:27.441Z,993.64
2017-02-03T03:56:37.402Z,993.67
2017-02-03T03:57:47.755Z,993.68
2017-02-03T03:58:58.107Z,993.68
2017-02-03T04:00:08.859Z,993.76
2017-02-03T04:01:18.811Z,993.75
2017-02-03T04:02:29.557Z,993.78
2017-02-03T04:03:40.306Z,993.84
2017-02-03T04:04:50.656Z,993.82
2017-02-03T04:06:01.007Z,993.85
2017-02-03T04:07:11.368Z,993.9
2017-02-03T04:08:21.751Z,993.84
2017-02-03T04:09:32.307Z,993.8
2017-02-03T04:10:42.654Z,993.75
2017-02-03T04:11:53.002Z,993.75
2017-02-03T04:13:03.379Z,993.72
2017-02-03T04:14:14.140Z,993.68
2017-02-03T04:15:24.101Z,993.7
2017-02-03T04:16:34.470Z,993.64
2017-02-03T04:17:44.854Z,993.68
2017-02-03T04:18:55.195Z,993.66
2017-02-03T04:20:05.944Z,993.64
2017-02-03T04:21:16.697Z,993.64
2017-02-03T04:22:27.435Z,993.6
2017-02-03T04:23:37.780Z,993.55
2017-02-03T04:24:48.138Z,993.58
2017-02-03T04:25:58.883Z,993.57
2017-02-03T04:27:08.429Z,993.58
2017-02-03T04:28:18.786Z,993.58
2017-02-03T04:29:29.534Z,993.6
2017-02-03T04:30:39.107Z,993.6
2017-02-03T04:31:49.465Z,993.66
2017-02-03T04:33:00.206Z,993.74
2017-02-03T04:34:10.972Z,993.74
2017-02-03T04:35:21.730Z,993.8
2017-02-03T04:36:32.062Z,993.85
2017-02-03T04:37:42.804Z,993.86
2017-02-03T04:38:52.759Z,993.81
2017-02-03T04:40:03.515Z,993.83
2017-02-03T04:41:14.265Z,993.8
2017-02-03T04:42:24.626Z,993.72
2017-02-03T04:43:35.398Z,993.76
2017-02-03T04:44:46.152Z,993.78
2017-02-03T04:45:56.898Z,993.78
2017-02-03T04:47:07.643Z,993.76
2017-02-03T04:48:18.404Z,993.77
2017-02-03T04:49:28.760Z,993.78
2017-02-03T04:50:39.499Z,993.77
2017-02-03T04:51:49.858Z,993.81
2017-02-03T04:53:00.238Z,993.83
2017-02-03T04:54:10.589Z,993.79
2017-02-03T04:55:21.341Z,993.75
2017-02-03T04:56:31.734Z,993.73
2017-02-03T04:57:41.297Z,993.67
2017-02-03T04:58:52.109Z,993.61
2017-02-03T05:00:02.861Z,993.56
2017-02-03T05:01:13.606Z,993.57
2017-02-03T05:02:24.349Z,993.59
2017-02-03T05:03:35.098Z,993.56
2017-02-03T05:04:45.851Z,993.54
2017-02-03T05:05:56.210Z,993.53
2017-02-03T05:07:06.956Z,993.49
2017-02-03T05:08:17.315Z,993.48
2017-02-03T05:09:27.275Z,993.47
2017-02-03T05:10:37.225Z,993.49
2017-02-03T05:11:47.587Z,993.49
2017-02-03T05:12:58.334Z,993.52
2017-02-03T05:14:09.082Z,993.45
2017-02-03T05:15:19.437Z,993.46
2017-02-03T05:16:29.804Z,993.43
2017-02-03T05:17:40.547Z,993.41
2017-02-03T05:18:50.946Z,993.42
2017-02-03T05:20:01.289Z,993.4
2017-02-03T05:21:11.638Z,993.45
2017-02-03T05:22:21.578Z,993.47
2017-02-03T05:23:31.929Z,993.49
2017-02-03T05:24:42.286Z,993.49
2017-02-03T05:25:52.644Z,993.47
2017-02-03T05:27:03.001Z,993.44
2017-02-03T05:28:13.352Z,993.43
2017-02-03T05:29:24.096Z,993.42
2017-02-03T05:30:34.455Z,993.44
2017-02-03T05:31:45.199Z,993.45
2017-02-03T05:32:55.947Z,993.42
2017-02-03T05:34:06.695Z,993.44
2017-02-03T05:35:16.651Z,993.4
2017-02-03T05:36:26.609Z,993.39
2017-02-03T05:37:36.565Z,993.42
2017-02-03T05:38:46.903Z,993.38
2017-02-03T05:39:57.685Z,993.4
2017-02-03T05:41:08.031Z,993.4
2017-02-03T05:42:18.778Z,993.45
2017-02-03T05:43:29.561Z,993.48
2017-02-03T05:44:39.925Z,993.44
2017-02-03T05:45:50.664Z,993.43
2017-02-03T05:47:00.219Z,993.43
2017-02-03T05:48:10.967Z,993.43
2017-02-03T05:49:21.712Z,993.43
2017-02-03T05:50:32.451Z,993.44
2017-02-03T05:51:42.839Z,993.44
2017-02-03T05:52:53.204Z,993.44
2017-02-03T05:54:03.554Z,993.48
2017-02-03T05:55:14.300Z,993.44
2017-02-03T05:56:25.049Z,993.47
2017-02-03T05:57:35.785Z,993.48
2017-02-03T05:58:46.552Z,993.46
2017-02-03T05:59:56.906Z,993.5
2017-02-03T06:01:07.255Z,993.52
2017-02-03T06:02:18.001Z,993.53
2017-02-03T06:03:27.957Z,993.55
2017-02-03T06:04:38.687Z,993.51
2017-02-03T06:05:49.433Z,993.53
2017-02-03T06:06:59.780Z,993.5
2017-02-03T06:08:10.525Z,993.48
2017-02-03T06:09:20.891Z,993.49
2017-02-03T06:10:31.254Z,993.51
2017-02-03T06:11:41.599Z,993.52
2017-02-03T06:12:52.403Z,993.49
2017-02-03T06:14:02.771Z,993.52
2017-02-03T06:15:13.121Z,993.49
2017-02-03T06:16:23.870Z,993.52
2017-02-03T06:17:34.616Z,993.46
2017-02-03T06:18:44.960Z,993.49
2017-02-03T06:19:54.923Z,993.52
2017-02-03T06:21:05.665Z,993.52
2017-02-03T06:22:16.423Z,993.58
2017-02-03T06:23:27.177Z,993.58
2017-02-03T06:24:37.926Z,993.57
2017-02-03T06:25:48.677Z,993.56
2017-02-03T06:26:59.419Z,993.56
2017-02-03T06:28:09.377Z,993.58
2017-02-03T06:29:20.130Z,993.6
2017-02-03T06:30:30.879Z,993.6
2017-02-03T06:31:41.636Z,993.59
2017-02-03T06:32:51.982Z,993.61
2017-02-03T06:34:02.355Z,993.67
2017-02-03T06:35:12.310Z,993.68
2017-02-03T06:36:22.666Z,993.65
2017-02-03T06:37:33.437Z,993.69
2017-02-03T06:38:43.787Z,993.66
2017-02-03T06:39:54.144Z,993.68
2017-02-03T06:41:04.123Z,993.68
2017-02-03T06:42:14.468Z,993.68
2017-02-03T06:43:25.227Z,993.7
2017-02-03T06:44:35.966Z,993.67
2017-02-03T06:45:46.348Z,993.69
2017-02-03T06:46:56.690Z,993.71
2017-02-03T06:48:06.660Z,993.67
2017-02-03T06:49:17.422Z,993.7
2017-02-03T06:50:27.778Z,993.7
2017-02-03T06:51:37.729Z,993.66
2017-02-03T06:52:47.690Z,993.69
2017-02-03T06:53:58.045Z,993.73
2017-02-03T06:55:08.410Z,993.7
2017-02-03T06:56:18.365Z,993.68
2017-02-03T06:57:29.097Z,993.71
2017-02-03T06:58:39.455Z,993.7
2017-02-03T06:59:49.834Z,993.67
2017-02-03T07:01:00.184Z,993.66
2017-02-03T07:02:10.930Z,993.62
2017-02-03T07:03:21.296Z,993.6
2017-02-03T07:04:32.052Z,993.58
2017-02-03T07:05:42.399Z,993.59
2017-02-03T07:06:52.749Z,993.54
2017-02-03T07:08:03.484Z,993.58
2017-02-03T07:09:14.235Z,993.55
2017-02-03T07:10:24.987Z,993.53
2017-02-03T07:11:35.731Z,993.52
2017-02-03T07:12:46.460Z,993.57
2017-02-03T07:13:56.823Z,993.55
2017-02-03T07:15:07.607Z,993.54
2017-02-03T07:16:17.200Z,993.52
2017-02-03T07:17:27.156Z,993.52
2017-02-03T07:18:37.904Z,993.49
2017-02-03T07:19:48.651Z,993.53
2017-02-03T07:20:59.008Z,993.53
2017-02-03T07:22:09.774Z,993.49
2017-02-03T07:23:20.142Z,993.53
2017-02-03T07:24:30.098Z,993.55
2017-02-03T07:25:40.856Z,993.57
2017-02-03T07:26:51.606Z,993.59
2017-02-03T07:28:02.381Z,993.64
2017-02-03T07:29:12.784Z,993.62
2017-02-03T07:30:23.132Z,993.61
2017-02-03T07:31:33.098Z,993.61
2017-02-03T07:32:43.899Z,993.54
2017-02-03T07:33:54.648Z,993.55
2017-02-03T07:35:04.618Z,993.54
2017-02-03T07:36:14.580Z,993.57
2017-02-03T07:37:25.337Z,993.53
2017-02-03T07:38:36.084Z,993.5
2017-02-03T07:39:46.835Z,993.49
2017-02-03T07:40:57.585Z,993.46
2017-02-03T07:42:08.342Z,993.45
2017-02-03T07:43:18.320Z,993.42
2017-02-03T07:44:29.057Z,993.43
2017-02-03T07:45:39.805Z,993.43
2017-02-03T07:46:50.551Z,993.4
2017-02-03T07:48:00.531Z,993.4
2017-02-03T07:49:10.493Z,993.35
2017-02-03T07:50:20.847Z,993.32
2017-02-03T07:51:31.616Z,993.31
2017-02-03T07:52:42.352Z,993.35
2017-02-03T07:53:51.917Z,993.32
2017-02-03T07:55:02.286Z,993.36
2017-02-03T07:56:12.646Z,993.36
2017-02-03T07:57:23.433Z,993.34
2017-02-03T07:58:33.788Z,993.34
2017-02-03T07:59:44.534Z,993.38
2017-02-03T08:00:55.280Z,993.39
2017-02-03T08:02:05.288Z,993.39
2017-02-03T08:03:16.044Z,993.38
2017-02-03T08:04:26.393Z,993.4
2017-02-03T08:05:36.364Z,993.41
2017-02-03T08:06:46.725Z,993.4
2017-02-03T08:07:57.067Z,993.39
2017-02-03T08:09:07.415Z,993.37
2017-02-03T08:10:17.787Z,993.4
2017-02-03T08:11:28.530Z,993.39
2017-02-03T08:12:38.880Z,993.43
2017-02-03T08:13:49.626Z,993.41
2017-02-03T08:14:59.990Z,993.4
2017-02-03T08:16:09.951Z,993.41
2017-02-03T08:17:20.310Z,993.36
2017-02-03T08:18:31.068Z,993.38
2017-02-03T08:19:41.031Z,993.39
2017-02-03T08:20:51.771Z,993.39
2017-02-03T08:22:01.345Z,993.37
2017-02-03T08:23:12.102Z,993.38
2017-02-03T08:24:22.871Z,993.36
2017-02-03T08:25:33.664Z,993.34
2017-02-03T08:26:44.422Z,993.35
2017-02-03T08:27:55.212Z,993.36
2017-02-03T08:29:05.972Z,993.4
2017-02-03T08:30:16.715Z,993.38
2017-02-03T08:31:27.098Z,993.42
2017-02-03T08:32:37.485Z,993.45
2017-02-03T08:33:48.275Z,993.45
2017-02-03T08:34:58.638Z,993.44
2017-02-03T08:36:09.385Z,993.42
2017-02-03T08:37:18.941Z,993.42
2017-02-03T08:38:29.687Z,993.43
2017-02-03T08:39:40.458Z,993.37
2017-02-03T08:40:50.856Z,993.41
2017-02-03T08:42:01.244Z,993.43
2017-02-03T08:43:11.990Z,993.45
2017-02-03T08:44:22.356Z,993.42
2017-02-03T08:45:32.711Z,993.42
2017-02-03T08:46:43.466Z,993.42
2017-02-03T08:47:53.821Z,993.46
2017-02-03T08:49:04.565Z,993.44
2017-02-03T08:50:15.349Z,993.45
2017-02-03T08:51:24.935Z,993.46
2017-02-03T08:52:35.292Z,993.5
2017-02-03T08:53:45.653Z,993.48
2017-02-03T08:54:56.401Z,993.45
2017-02-03T08:56:07.146Z,993.42
2017-02-03T08:57:17.123Z,993.44
2017-02-03T08:58:27.470Z,993.43
2017-02-03T08:59:37.435Z,993.44
2017-02-03T09:00:47.802Z,993.43
2017-02-03T09:01:57.771Z,993.45
2017-02-03T09:03:07.742Z,993.47
2017-02-03T09:04:17.933Z,993.49
2017-02-03T09:05:28.283Z,993.44
2017-02-03T09:06:39.051Z,993.47
2017-02-03T09:07:49.403Z,993.46
2017-02-03T09:08:59.763Z,993.44
2017-02-03T09:10:10.505Z,993.44
2017-02-03T09:11:21.253Z,993.42
2017-02-03T09:12:31.998Z,993.44
2017-02-03T09:13:42.735Z,993.47
2017-02-03T09:14:53.490Z,993.45
2017-02-03T09:16:03.845Z,993.47
2017-02-03T09:17:14.602Z,993.44
2017-02-03T09:18:24.564Z,993.48
2017-02-03T09:19:34.521Z,993.42
2017-02-03T09:20:45.276Z,993.45
2017-02-03T09:21:56.018Z,993.47
2017-02-03T09:23:06.381Z,993.45
2017-02-03T09:24:17.130Z,993.46
2017-02-03T09:25:27.569Z,993.44
2017-02-03T09:26:38.331Z,993.41
2017-02-03T09:27:48.692Z,993.45
2017-02-03T09:28:59.455Z,993.41
2017-02-03T09:30:09.047Z,993.47
2017-02-03T09:31:19.405Z,993.46
2017-02-03T09:32:29.362Z,993.44
2017-02-03T09:33:39.325Z,993.42
2017-02-03T09:34:49.316Z,993.42
2017-02-03T09:35:59.682Z,993.37
2017-02-03T09:37:10.107Z,993.38
2017-02-03T09:38:20.853Z,993.34
2017-02-03T09:39:30.839Z,993.36
2017-02-03T09:40:40.791Z,993.35
2017-02-03T09:41:51.547Z,993.34
2017-02-03T09:43:01.910Z,993.35
2017-02-03T09:44:12.274Z,993.35
2017-02-03T09:45:23.016Z,993.34
2017-02-03T09:46:33.363Z,993.35
2017-02-03T09:47:44.111Z,993.37
2017-02-03T09:48:54.505Z,993.33
2017-02-03T09:50:05.267Z,993.33
2017-02-03T09:51:15.626Z,993.28
2017-02-03T09:52:26.216Z,993.29
2017-02-03T09:53:36.572Z,993.28
2017-02-03T09:54:46.546Z,993.34
2017-02-03T09:55:56.118Z,993.32
2017-02-03T09:57:06.915Z,993.32
2017-02-03T09:58:17.666Z,993.27
2017-02-03T09:59:27.630Z,993.27
2017-02-03T10:00:37.578Z,993.31
2017-02-03T10:01:47.961Z,993.27
2017-02-03T10:02:58.347Z,993.29
2017-02-03T10:04:08.716Z,993.31
2017-02-03T10:05:19.464Z,993.29
2017-02-03T10:06:29.811Z,993.31
2017-02-03T10:07:40.204Z,993.27
2017-02-03T10:08:50.947Z,993.21
2017-02-03T10:10:01.302Z,993.24
2017-02-03T10:11:12.072Z,993.18
2017-02-03T10:12:22.832Z,993.15
2017-02-03T10:13:33.571Z,993.21
2017-02-03T10:14:44.331Z,993.16
2017-02-03T10:15:55.099Z,993.17
2017-02-03T10:17:05.860Z,993.17
2017-02-03T10:18:16.613Z,993.18
2017-02-03T10:19:27.350Z,993.18
2017-02-03T10:20:38.136Z,993.21
2017-02-03T10:21:48.499Z,993.17
2017-02-03T10:22:59.245Z,993.21
2017-02-03T10:24:09.209Z,993.2
2017-02-03T10:25:19.570Z,993.23
2017-02-03T10:26:30.326Z,993.21
2017-02-03T10:27:40.694Z,993.19
2017-02-03T10:28:51.493Z,993.16
2017-02-03T10:30:02.227Z,993.17
2017-02-03T10:31:11.794Z,993.13
2017-02-03T10:32:22.199Z,993.12
2017-02-03T10:33:32.946Z,993.12
2017-02-03T10:34:43.739Z,993.15
2017-02-03T10:35:54.154Z,993.17
2017-02-03T10:37:04.117Z,993.14
2017-02-03T10:38:14.505Z,993.13
2017-02-03T10:39:24.864Z,993.1
2017-02-03T10:40:35.229Z,993.05
2017-02-03T10:41:45.594Z,993.02
2017-02-03T10:42:56.352Z,992.95
2017-02-03T10:44:06.726Z,992.99
2017-02-03T10:45:16.282Z,993
2017-02-03T10:46:27.033Z,992.99
2017-02-03T10:47:37.830Z,992.97
2017-02-03T10:48:48.583Z,993.01
2017-02-03T10:49:58.933Z,993.02
2017-02-03T10:51:09.694Z,993.03
2017-02-03T10:52:20.461Z,993.02
2017-02-03T10:53:31.223Z,992.98
2017-02-03T10:54:41.963Z,992.95
2017-02-03T10:55:52.340Z,992.89
2017-02-03T10:57:03.102Z,992.87
2017-02-03T10:58:13.903Z,992.84
2017-02-03T10:59:24.650Z,992.84
2017-02-03T11:00:34.614Z,992.84
2017-02-03T11:01:44.966Z,992.81
2017-02-03T11:02:55.320Z,992.81
2017-02-03T11:04:04.495Z,992.81
2017-02-03T11:05:14.878Z,992.86
2017-02-03T11:06:25.665Z,992.81
2017-02-03T11:07:36.031Z,992.85
2017-02-03T11:08:46.797Z,992.8
2017-02-03T11:09:57.556Z,992.74
2017-02-03T11:11:08.338Z,992.72
2017-02-03T11:12:18.700Z,992.68
2017-02-03T11:13:29.487Z,992.67
2017-02-03T11:14:39.834Z,992.65
2017-02-03T11:15:50.584Z,992.67
2017-02-03T11:17:00.939Z,992.63
2017-02-03T11:18:11.703Z,992.61
2017-02-03T11:19:22.096Z,992.62
2017-02-03T11:20:32.864Z,992.61
2017-02-03T11:21:42.823Z,992.62
2017-02-03T11:22:53.183Z,992.6
2017-02-03T11:24:03.539Z,992.57
2017-02-03T11:25:14.318Z,992.52
2017-02-03T11:26:24.299Z,992.55
2017-02-03T11:27:33.851Z,992.52
2017-02-03T11:28:44.631Z,992.5
2017-02-03T11:29:55.422Z,992.51
2017-02-03T11:31:05.778Z,992.52
2017-02-03T11:32:16.516Z,992.51
2017-02-03T11:33:27.281Z,992.51
2017-02-03T11:34:38.015Z,992.54
2017-02-03T11:35:48.368Z,992.48
2017-02-03T11:36:59.110Z,992.44
2017-02-03T11:38:09.856Z,992.43
2017-02-03T11:39:20.603Z,992.44
2017-02-03T11:40:31.381Z,992.43
2017-02-03T11:41:41.735Z,992.43
2017-02-03T11:42:52.501Z,992.35
2017-02-03T11:44:03.255Z,992.33
2017-02-03T11:45:13.598Z,992.33
2017-02-03T11:46:23.588Z,992.31
2017-02-03T11:47:33.945Z,992.36
2017-02-03T11:48:44.683Z,992.31
2017-02-03T11:49:55.040Z,992.3
2017-02-03T11:51:05.393Z,992.25
2017-02-03T11:52:16.250Z,992.26
2017-02-03T11:53:26.262Z,992.24
2017-02-03T11:54:37.242Z,992.2
2017-02-03T11:55:47.317Z,992.27
2017-02-03T11:56:58.435Z,992.26
2017-02-03T11:58:08.819Z,992.32
2017-02-03T11:59:18.761Z,992.25
2017-02-03T12:00:29.112Z,992.21
2017-02-03T12:01:39.469Z,992.25
2017-02-03T12:02:49.850Z,992.25
2017-02-03T12:04:00.575Z,992.22
2017-02-03T12:05:11.334Z,992.2
2017-02-03T12:06:20.116Z,992.13
2017-02-03T12:07:30.464Z,992.15
2017-02-03T12:08:40.465Z,992.16
2017-02-03T12:09:51.220Z,992.07
2017-02-03T12:11:01.169Z,992.05
2017-02-03T12:12:11.933Z,992
2017-02-03T12:13:22.296Z,991.94
2017-02-03T12:14:32.680Z,991.96
2017-02-03T12:15:43.424Z,991.92
2017-02-03T12:16:53.791Z,991.94
2017-02-03T12:18:04.536Z,991.95
2017-02-03T12:19:14.894Z,991.92
2017-02-03T12:20:25.641Z,991.9
2017-02-03T12:21:35.597Z,991.92
2017-02-03T12:22:46.356Z,991.91
2017-02-03T12:23:56.320Z,991.9
2017-02-03T12:25:06.689Z,991.85
2017-02-03T12:26:17.031Z,991.81
2017-02-03T12:27:27.784Z,991.76
2017-02-03T12:28:38.539Z,991.78
2017-02-03T12:29:49.289Z,991.74
2017-02-03T12:31:00.035Z,991.68
2017-02-03T12:32:10.825Z,991.73
2017-02-03T12:33:21.581Z,991.72
2017-02-03T12:34:31.938Z,991.76
2017-02-03T12:35:42.710Z,991.75
2017-02-03T12:36:53.465Z,991.77
2017-02-03T12:38:04.198Z,991.77
2017-02-03T12:39:14.567Z,991.81
2017-02-03T12:40:25.350Z,991.83
2017-02-03T12:41:36.118Z,991.83
2017-02-03T12:42:46.881Z,991.82
2017-02-03T12:43:57.619Z,991.81
2017-02-03T12:45:08.358Z,991.81
2017-02-03T12:46:19.116Z,991.8
2017-02-03T12:47:29.957Z,991.78
2017-02-03T12:48:39.928Z,991.75
2017-02-03T12:49:49.895Z,991.75
2017-02-03T12:51:00.658Z,991.75
2017-02-03T12:52:11.423Z,991.77
2017-02-03T12:53:21.774Z,991.77
2017-02-03T12:54:31.738Z,991.75
2017-02-03T12:55:42.490Z,991.74
2017-02-03T12:56:53.228Z,991.74
2017-02-03T12:58:03.981Z,991.75
2017-02-03T12:59:13.939Z,991.73
2017-02-03T13:00:24.281Z,991.69
2017-02-03T13:01:34.774Z,991.69
2017-02-03T13:02:45.128Z,991.71
2017-02-03T13:03:55.888Z,991.71
2017-02-03T13:05:06.646Z,991.73
2017-02-03T13:06:17.005Z,991.74
2017-02-03T13:07:26.966Z,991.71
2017-02-03T13:08:37.343Z,991.66
2017-02-03T13:09:48.089Z,991.65
2017-02-03T13:10:58.448Z,991.6
2017-02-03T13:12:08.833Z,991.57
2017-02-03T13:13:19.592Z,991.59
2017-02-03T13:14:30.351Z,991.59
2017-02-03T13:15:39.928Z,991.6
2017-02-03T13:16:49.883Z,991.59
2017-02-03T13:18:00.653Z,991.64
2017-02-03T13:19:11.400Z,991.68
2017-02-03T13:20:22.145Z,991.67
2017-02-03T13:21:32.521Z,991.67
2017-02-03T13:22:42.543Z,991.7
2017-02-03T13:23:52.901Z,991.73
2017-02-03T13:25:03.246Z,991.73
2017-02-03T13:26:13.986Z,991.73
2017-02-03T13:27:24.742Z,991.73
2017-02-03T13:28:35.496Z,991.74
2017-02-03T13:29:45.844Z,991.68
2017-02-03T13:30:56.224Z,991.64
2017-02-03T13:32:06.592Z,991.63
2017-02-03T13:33:16.950Z,991.54
2017-02-03T13:34:26.903Z,991.53
2017-02-03T13:35:37.257Z,991.53
2017-02-03T13:36:48.015Z,991.5
2017-02-03T13:37:58.827Z,991.57
2017-02-03T13:39:09.573Z,991.52
2017-02-03T13:40:19.921Z,991.52
2017-02-03T13:41:30.279Z,991.54
2017-02-03T13:42:41.028Z,991.54
2017-02-03T13:43:51.386Z,991.49
2017-02-03T13:45:02.154Z,991.47
2017-02-03T13:46:12.915Z,991.44
2017-02-03T13:47:23.666Z,991.44
2017-02-03T13:48:34.016Z,991.4
2017-02-03T13:49:44.761Z,991.37
2017-02-03T13:50:54.724Z,991.38
2017-02-03T13:52:05.068Z,991.39
2017-02-03T13:53:16.061Z,991.4
2017-02-03T13:54:26.826Z,991.41
2017-02-03T13:55:36.810Z,991.41
2017-02-03T13:56:47.199Z,991.44
2017-02-03T13:57:57.951Z,991.48
2017-02-03T13:59:08.698Z,991.48
2017-02-03T14:00:19.466Z,991.46
2017-02-03T14:01:30.225Z,991.43
2017-02-03T14:02:40.597Z,991.42
2017-02-03T14:03:50.956Z,991.42
2017-02-03T14:05:01.330Z,991.42
2017-02-03T14:06:11.306Z,991.42
2017-02-03T14:07:22.060Z,991.42
2017-02-03T14:08:32.815Z,991.42
2017-02-03T14:09:43.561Z,991.42
2017-02-03T14:10:53.902Z,991.41
2017-02-03T14:12:04.257Z,991.44
2017-02-03T14:13:14.690Z,991.42
2017-02-03T14:14:25.465Z,991.4
2017-02-03T14:15:35.836Z,991.43
2017-02-03T14:16:46.249Z,991.35
2017-02-03T14:17:57.027Z,991.36
2017-02-03T14:19:07.831Z,991.37
2017-02-03T14:20:18.636Z,991.37
2017-02-03T14:21:29.450Z,991.42
2017-02-03T14:22:40.253Z,991.4
2017-02-03T14:23:50.662Z,991.45
2017-02-03T14:25:01.484Z,991.45
2017-02-03T14:26:11.889Z,991.45
2017-02-03T14:27:21.897Z,991.46
2017-02-03T14:28:32.299Z,991.43
2017-02-03T14:29:43.117Z,991.41
2017-02-03T14:30:53.103Z,991.45
2017-02-03T14:32:03.461Z,991.43
2017-02-03T14:33:13.849Z,991.44
2017-02-03T14:34:24.855Z,991.42
2017-02-03T14:35:34.817Z,991.44
2017-02-03T14:36:45.590Z,991.43
2017-02-03T14:37:55.568Z,991.43
2017-02-03T14:39:05.518Z,991.41
2017-02-03T14:40:15.888Z,991.44
2017-02-03T14:41:26.267Z,991.39
2017-02-03T14:42:36.901Z,991.4
2017-02-03T14:43:47.651Z,991.4
2017-02-03T14:44:58.005Z,991.38
2017-02-03T14:46:07.960Z,991.37
2017-02-03T14:47:18.327Z,991.35
2017-02-03T14:48:28.689Z,991.34
2017-02-03T14:49:39.065Z,991.36
2017-02-03T14:50:49.036Z,991.34
2017-02-03T14:51:59.803Z,991.34
2017-02-03T14:53:10.581Z,991.35
2017-02-03T14:54:20.555Z,991.33
2017-02-03T14:55:30.115Z,991.34
2017-02-03T14:56:40.875Z,991.29
2017-02-03T14:57:51.218Z,991.3
2017-02-03T14:59:01.585Z,991.33
2017-02-03T15:00:11.937Z,991.33
2017-02-03T15:01:21.903Z,991.28
2017-02-03T15:02:32.253Z,991.29
2017-02-03T15:03:42.231Z,991.33
2017-02-03T15:04:52.188Z,991.31
2017-02-03T15:06:02.936Z,991.29
2017-02-03T15:07:12.896Z,991.29
2017-02-03T15:08:23.629Z,991.32
2017-02-03T15:09:34.381Z,991.29
2017-02-03T15:10:45.132Z,991.26
2017-02-03T15:11:55.878Z,991.24
2017-02-03T15:13:06.643Z,991.27